Time;durP1;ratioP1;P1;durP2;ratioP2;P2;SDS_P1;SDS_P2;PMS_P1;PMS_P2;Temp;Humidity;BMP_temperature;BMP_pressure;BME280_temperature;BME280_humidity;BME280_pressure;Samples;Min_cycle;Max_cycle;Signal;HPM_P1;HPM_P2
2021/09/25 00:02:06;;;;;;;6.60;5.63;;;18.10;1.00;;;;;;5051500;28;20025;-80
2021/09/25 00:04:33;;;;;;;6.88;6.18;;;18.20;1.00;;;;;;5031405;28;20058;-80
2021/09/25 00:06:59;;;;;;;7.38;5.82;;;18.20;1.00;;;;;;5048216;28;20100;-80
2021/09/25 00:09:25;;;;;;;7.35;6.20;;;18.00;1.00;;;;;;5049577;28;20070;-79
2021/09/25 00:11:51;;;;;;;6.68;6.03;;;17.90;1.00;;;;;;5049569;28;20035;-80
2021/09/25 00:14:16;;;;;;;7.18;6.47;;;17.90;1.00;;;;;;5051371;28;20057;-80
2021/09/25 00:16:42;;;;;;;9.27;6.30;;;18.00;1.00;;;;;;5049236;28;20029;-80
2021/09/25 00:19:08;;;;;;;8.05;6.55;;;18.10;1.00;;;;;;5050049;28;20045;-80
2021/09/25 00:21:33;;;;;;;10.05;6.75;;;18.10;1.00;;;;;;5049679;28;20402;-80
2021/09/25 00:23:59;;;;;;;8.85;6.47;;;18.00;1.00;;;;;;5049438;28;20026;-80
2021/09/25 00:26:26;;;;;;;7.80;6.88;;;17.90;1.00;;;;;;5051596;28;20022;-80
2021/09/25 00:28:53;;;;;;;6.65;6.03;;;17.90;1.00;;;;;;5049950;28;20033;-80
2021/09/25 00:31:19;;;;;;;8.18;6.50;;;17.80;1.00;;;;;;5049358;28;20028;-80
2021/09/25 00:33:45;;;;;;;9.23;6.82;;;17.80;1.00;;;;;;5053290;28;20025;-79
2021/09/25 00:36:10;;;;;;;9.32;6.40;;;17.80;1.00;;;;;;5053263;28;20082;-80
2021/09/25 00:38:37;;;;;;;7.65;6.28;;;17.70;1.00;;;;;;5055385;28;20043;-79
2021/09/25 00:41:04;;;;;;;7.10;6.38;;;17.70;1.00;;;;;;5054919;28;20025;-79
2021/09/25 00:43:29;;;;;;;7.22;6.53;;;17.70;1.00;;;;;;5054299;28;20120;-79
2021/09/25 00:45:55;;;;;;;7.70;6.10;;;17.70;1.00;;;;;;5052005;28;20107;-79
2021/09/25 00:48:20;;;;;;;7.78;6.38;;;17.60;1.00;;;;;;5035573;28;20047;-80
2021/09/25 00:50:46;;;;;;;8.93;6.65;;;17.50;1.00;;;;;;5053448;28;20034;-79
2021/09/25 00:53:12;;;;;;;9.75;6.82;;;17.60;1.00;;;;;;5055203;28;20031;-79
2021/09/25 00:55:38;;;;;;;10.20;6.35;;;17.50;1.00;;;;;;5052982;28;20029;-80
2021/09/25 00:58:05;;;;;;;6.90;6.10;;;17.50;1.00;;;;;;5053250;28;20037;-79
2021/09/25 01:00:33;;;;;;;7.75;6.22;;;17.50;1.00;;;;;;5053395;28;20021;-79
2021/09/25 01:02:58;;;;;;;6.80;6.10;;;17.50;1.00;;;;;;5052919;28;20055;-79
2021/09/25 01:05:24;;;;;;;6.80;5.82;;;17.50;1.00;;;;;;5055322;28;20529;-79
2021/09/25 01:07:51;;;;;;;6.50;5.43;;;17.50;1.00;;;;;;5052698;28;20025;-79
2021/09/25 01:10:18;;;;;;;7.35;5.95;;;17.50;1.00;;;;;;5052187;28;20056;-79
2021/09/25 01:12:44;;;;;;;6.72;5.97;;;17.50;1.00;;;;;;5053081;28;20035;-80
2021/09/25 01:15:12;;;;;;;6.78;5.90;;;17.60;1.00;;;;;;5053047;28;20041;-79
2021/09/25 01:17:38;;;;;;;6.80;6.05;;;17.50;1.00;;;;;;5053096;28;20091;-79
2021/09/25 01:20:05;;;;;;;8.43;5.72;;;17.40;1.00;;;;;;5054738;28;20032;-79
2021/09/25 01:22:31;;;;;;;8.45;5.57;;;17.30;1.00;;;;;;5052590;28;20036;-80
2021/09/25 01:24:57;;;;;;;6.40;5.72;;;17.40;1.00;;;;;;5050476;28;20036;-79
2021/09/25 01:27:23;;;;;;;7.88;6.28;;;17.50;1.00;;;;;;5052815;28;20063;-79
2021/09/25 01:29:49;;;;;;;6.18;5.68;;;17.60;1.00;;;;;;5052644;28;20095;-79
2021/09/25 01:32:15;;;;;;;6.38;5.78;;;17.60;1.00;;;;;;5054904;28;20532;-79
2021/09/25 01:34:41;;;;;;;7.78;6.35;;;17.60;1.00;;;;;;5052558;28;20493;-79
2021/09/25 01:37:06;;;;;;;7.32;6.22;;;17.60;1.00;;;;;;5052979;28;20013;-79
2021/09/25 01:39:32;;;;;;;6.57;5.95;;;17.50;1.00;;;;;;5051812;28;20089;-79
2021/09/25 01:42:01;;;;;;;7.85;6.35;;;17.60;1.00;;;;;;5052715;28;20056;-80
2021/09/25 01:44:26;;;;;;;6.35;5.75;;;17.60;1.00;;;;;;5053655;28;20477;-79
2021/09/25 01:46:57;;;;;;;6.55;5.93;;;17.60;1.00;;;;;;5053032;28;20050;-79
2021/09/25 01:49:23;;;;;;;6.63;5.63;;;17.50;1.00;;;;;;5052292;28;20060;-80
2021/09/25 01:51:49;;;;;;;9.20;6.10;;;17.50;1.00;;;;;;5052025;28;20570;-79
2021/09/25 01:54:16;;;;;;;10.52;6.03;;;17.50;1.00;;;;;;5051647;28;20033;-79
2021/09/25 01:56:44;;;;;;;6.85;6.07;;;17.60;1.00;;;;;;5052833;28;20021;-79
2021/09/25 01:59:11;;;;;;;6.93;6.20;;;17.60;1.00;;;;;;5054259;28;20400;-79
2021/09/25 02:01:36;;;;;;;7.25;6.07;;;17.60;1.00;;;;;;5051907;28;20553;-80
2021/09/25 02:04:02;;;;;;;14.55;7.30;;;17.60;1.00;;;;;;5051106;28;20466;-79
2021/09/25 02:06:28;;;;;;;7.70;6.20;;;17.60;1.00;;;;;;5052405;28;20021;-79
2021/09/25 02:08:53;;;;;;;6.68;6.03;;;17.50;1.00;;;;;;5051430;28;20106;-79
2021/09/25 02:11:20;;;;;;;6.75;6.10;;;17.40;1.00;;;;;;5053708;28;20036;-79
2021/09/25 02:13:46;;;;;;;6.35;5.85;;;17.40;1.00;;;;;;5051650;28;20120;-80
2021/09/25 02:16:12;;;;;;;7.72;6.20;;;17.40;1.00;;;;;;5052183;28;20024;-80
2021/09/25 02:18:39;;;;;;;6.43;5.82;;;17.40;1.00;;;;;;5051129;28;20269;-79
2021/09/25 02:21:05;;;;;;;7.55;6.40;;;17.40;1.00;;;;;;5052057;28;20033;-80
2021/09/25 02:23:32;;;;;;;7.57;6.72;;;17.40;1.00;;;;;;5052518;28;20370;-80
2021/09/25 02:26:03;;;;;;;7.78;6.22;;;17.40;1.00;;;;;;5053287;28;20070;-80
2021/09/25 02:28:30;;;;;;;10.32;6.45;;;17.40;1.00;;;;;;5051366;28;20037;-80
2021/09/25 02:30:57;;;;;;;8.60;6.15;;;17.50;1.00;;;;;;5052131;28;20024;-79
2021/09/25 02:33:22;;;;;;;7.80;6.05;;;17.60;1.00;;;;;;5051032;28;20484;-79
2021/09/25 02:35:49;;;;;;;6.40;5.80;;;17.60;1.00;;;;;;5051262;28;20064;-79
2021/09/25 02:38:16;;;;;;;6.50;5.85;;;17.60;1.00;;;;;;5053343;28;20029;-79
2021/09/25 02:40:42;;;;;;;7.25;6.30;;;17.60;1.00;;;;;;5051398;28;20477;-79
2021/09/25 02:43:08;;;;;;;6.72;5.78;;;17.70;1.00;;;;;;5049632;28;20044;-80
2021/09/25 02:45:34;;;;;;;10.00;6.25;;;17.70;1.00;;;;;;5051181;28;20025;-79
2021/09/25 02:48:01;;;;;;;8.38;6.13;;;17.70;1.00;;;;;;5051004;28;20555;-79
2021/09/25 02:50:27;;;;;;;6.25;5.63;;;17.80;1.00;;;;;;5053631;28;20020;-79
2021/09/25 02:52:52;;;;;;;6.53;5.93;;;17.80;1.00;;;;;;5051237;28;20029;-80
2021/09/25 02:55:18;;;;;;;7.00;5.55;;;17.90;1.00;;;;;;5050829;28;20067;-79
2021/09/25 02:57:44;;;;;;;6.45;5.78;;;17.80;1.00;;;;;;5033251;28;20029;-79
2021/09/25 03:00:14;;;;;;;7.63;5.82;;;17.90;1.00;;;;;;5033299;28;20123;-79
2021/09/25 03:02:40;;;;;;;7.13;6.43;;;17.90;1.00;;;;;;5051182;28;20017;-80
2021/09/25 03:05:06;;;;;;;6.05;5.45;;;17.90;1.00;;;;;;5052652;28;20029;-79
2021/09/25 03:07:31;;;;;;;9.40;6.40;;;17.80;1.00;;;;;;5050490;28;20029;-79
2021/09/25 03:09:57;;;;;;;6.60;5.88;;;17.80;1.00;;;;;;5050675;28;20345;-79
2021/09/25 03:12:23;;;;;;;7.35;5.93;;;17.80;1.00;;;;;;5050583;28;20563;-79
2021/09/25 03:14:48;;;;;;;6.50;5.80;;;17.80;1.00;;;;;;5050543;28;20051;-79
2021/09/25 03:17:14;;;;;;;6.40;5.80;;;17.90;1.00;;;;;;5052779;28;20017;-79
2021/09/25 03:19:41;;;;;;;6.63;5.93;;;17.90;1.00;;;;;;5050031;28;20072;-79
2021/09/25 03:22:07;;;;;;;9.15;5.90;;;17.90;1.00;;;;;;5049121;28;20021;-79
2021/09/25 03:24:33;;;;;;;6.63;6.00;;;17.80;1.00;;;;;;5050787;28;20039;-79
2021/09/25 03:26:59;;;;;;;7.30;6.32;;;17.80;1.00;;;;;;5051375;28;20025;-79
2021/09/25 03:29:24;;;;;;;6.22;5.63;;;17.90;1.00;;;;;;5052357;28;20036;-79
2021/09/25 03:31:50;;;;;;;6.15;5.50;;;18.00;1.00;;;;;;5033226;28;20052;-79
2021/09/25 03:34:16;;;;;;;8.52;6.10;;;17.90;1.00;;;;;;5049910;28;20064;-79
2021/09/25 03:36:42;;;;;;;6.05;5.55;;;18.00;1.00;;;;;;5049799;28;20401;-79
2021/09/25 03:39:09;;;;;;;8.75;5.95;;;18.00;1.00;;;;;;5050836;28;20037;-79
2021/09/25 03:41:35;;;;;;;7.15;6.05;;;18.00;1.00;;;;;;5051122;28;20377;-79
2021/09/25 03:44:01;;;;;;;6.30;5.70;;;18.00;1.00;;;;;;5051792;28;20025;-79
2021/09/25 03:46:27;;;;;;;6.75;6.15;;;17.90;1.00;;;;;;5050017;28;20037;-79
2021/09/25 03:48:52;;;;;;;6.53;5.93;;;17.90;1.00;;;;;;5049149;28;20287;-79
2021/09/25 03:51:18;;;;;;;7.18;5.70;;;18.00;1.00;;;;;;5049382;28;20400;-79
2021/09/25 03:53:44;;;;;;;7.40;6.20;;;18.00;1.00;;;;;;5050430;28;20075;-79
2021/09/25 03:56:10;;;;;;;6.28;5.65;;;18.00;1.00;;;;;;5051838;28;20392;-79
2021/09/25 03:58:37;;;;;;;6.88;6.18;;;17.80;1.00;;;;;;5049667;28;20033;-79
2021/09/25 04:01:03;;;;;;;6.63;6.00;;;17.90;1.00;;;;;;5048107;28;20099;-79
2021/09/25 04:03:29;;;;;;;6.82;6.20;;;17.80;1.00;;;;;;5049577;28;20064;-79
2021/09/25 04:05:56;;;;;;;8.40;6.60;;;17.80;1.00;;;;;;5034295;28;20029;-79
2021/09/25 04:08:22;;;;;;;6.72;6.03;;;17.90;1.00;;;;;;5051632;28;20032;-79
2021/09/25 04:10:48;;;;;;;6.47;5.85;;;17.90;1.00;;;;;;5030557;28;20112;-79
2021/09/25 04:13:13;;;;;;;8.27;5.72;;;17.90;1.00;;;;;;5049549;28;20083;-79
2021/09/25 04:15:39;;;;;;;6.38;5.78;;;17.80;1.00;;;;;;5049237;28;20069;-79
2021/09/25 04:18:05;;;;;;;7.15;6.28;;;17.80;1.00;;;;;;5049142;28;20463;-79
2021/09/25 04:20:31;;;;;;;7.40;5.97;;;17.70;1.00;;;;;;5050855;28;20024;-79
2021/09/25 04:22:56;;;;;;;7.03;6.15;;;17.70;1.00;;;;;;5050826;28;20032;-79
2021/09/25 04:25:26;;;;;;;7.57;6.22;;;17.70;1.00;;;;;;5049556;28;20472;-79
2021/09/25 04:27:52;;;;;;;6.90;6.30;;;17.70;1.00;;;;;;5049374;28;20025;-79
2021/09/25 04:30:18;;;;;;;6.40;5.88;;;17.60;1.00;;;;;;5049294;28;20500;-79
2021/09/25 04:32:44;;;;;;;9.48;5.90;;;17.60;1.00;;;;;;5049945;28;20021;-79
2021/09/25 04:35:10;;;;;;;7.25;6.28;;;17.60;1.00;;;;;;5051339;28;20465;-79
2021/09/25 04:37:35;;;;;;;8.10;6.45;;;17.60;1.00;;;;;;5049435;28;20036;-79
2021/09/25 04:40:01;;;;;;;8.23;6.57;;;17.60;1.00;;;;;;5047855;28;20112;-79
2021/09/25 04:42:27;;;;;;;6.60;5.90;;;17.60;1.00;;;;;;5049988;28;20029;-79
2021/09/25 04:44:53;;;;;;;8.05;6.28;;;17.60;1.00;;;;;;5049577;28;20036;-79
2021/09/25 04:47:18;;;;;;;12.13;7.07;;;17.70;1.00;;;;;;5033113;28;20033;-79
2021/09/25 04:49:44;;;;;;;7.93;6.20;;;17.70;1.00;;;;;;5049523;28;20033;-79
2021/09/25 04:52:09;;;;;;;7.05;6.35;;;17.70;1.00;;;;;;5049120;28;20036;-79
2021/09/25 04:54:35;;;;;;;7.28;6.57;;;17.70;1.00;;;;;;5049470;28;20028;-79
2021/09/25 04:57:01;;;;;;;7.63;6.40;;;17.80;1.00;;;;;;5049669;28;20026;-79
2021/09/25 04:59:26;;;;;;;7.53;6.22;;;17.90;1.00;;;;;;5050642;28;20674;-78
2021/09/25 05:01:52;;;;;;;6.38;5.78;;;17.90;1.00;;;;;;5049081;28;20052;-79
2021/09/25 05:04:17;;;;;;;6.47;5.82;;;18.00;1.00;;;;;;5049324;28;20037;-79
2021/09/25 05:06:45;;;;;;;9.07;5.90;;;18.00;1.00;;;;;;5049202;28;20017;-80
2021/09/25 05:09:11;;;;;;;6.53;5.80;;;18.00;1.00;;;;;;5048107;28;20033;-79
2021/09/25 05:11:36;;;;;;;8.00;6.07;;;18.00;1.00;;;;;;5049831;28;20029;-79
2021/09/25 05:14:02;;;;;;;6.10;5.50;;;18.10;1.00;;;;;;5050701;28;20144;-79
2021/09/25 05:16:28;;;;;;;7.35;6.25;;;18.10;1.00;;;;;;5046977;28;20466;-79
2021/09/25 05:18:54;;;;;;;6.40;5.80;;;18.00;1.00;;;;;;5047567;28;20039;-79
2021/09/25 05:21:21;;;;;;;8.05;5.45;;;18.00;1.00;;;;;;5053138;28;20032;-79
2021/09/25 05:23:47;;;;;;;5.82;5.32;;;18.00;1.00;;;;;;5052276;28;20033;-80
2021/09/25 05:26:13;;;;;;;7.22;5.47;;;17.90;1.00;;;;;;5054569;28;20389;-80
2021/09/25 05:28:38;;;;;;;6.32;5.72;;;17.90;1.00;;;;;;5053063;28;20033;-80
2021/09/25 05:31:04;;;;;;;8.27;5.85;;;17.80;1.00;;;;;;5052445;28;20119;-80
2021/09/25 05:33:30;;;;;;;6.35;5.75;;;17.80;1.00;;;;;;5052412;28;20561;-80
2021/09/25 05:35:55;;;;;;;6.53;5.82;;;17.90;1.00;;;;;;5053348;28;20464;-80
2021/09/25 05:38:22;;;;;;;8.13;5.90;;;17.90;1.00;;;;;;5054209;28;20404;-80
2021/09/25 05:40:47;;;;;;;7.55;6.30;;;17.90;1.00;;;;;;5052100;28;20412;-80
2021/09/25 05:43:13;;;;;;;6.95;6.25;;;18.00;1.00;;;;;;5052634;28;20036;-80
2021/09/25 05:45:38;;;;;;;6.32;5.32;;;18.10;1.00;;;;;;5052061;28;20029;-81
2021/09/25 05:48:04;;;;;;;8.95;5.65;;;18.10;1.00;;;;;;5051223;28;20105;-80
2021/09/25 05:50:30;;;;;;;6.60;5.70;;;18.00;1.00;;;;;;5053533;28;20078;-80
2021/09/25 05:52:56;;;;;;;6.20;5.60;;;18.10;1.00;;;;;;5053055;28;20029;-81
2021/09/25 05:55:22;;;;;;;6.10;5.43;;;18.10;1.00;;;;;;5051808;28;20036;-80
2021/09/25 05:57:47;;;;;;;6.57;5.78;;;18.20;1.00;;;;;;5050322;28;20455;-80
2021/09/25 06:00:14;;;;;;;5.88;5.28;;;18.20;1.00;;;;;;5051981;28;20029;-80
2021/09/25 06:02:41;;;;;;;6.43;5.88;;;18.20;1.00;;;;;;5052919;28;20023;-80
2021/09/25 06:05:08;;;;;;;5.90;5.22;;;18.30;1.00;;;;;;5053632;28;20021;-80
2021/09/25 06:07:34;;;;;;;6.22;5.47;;;18.30;1.00;;;;;;5051693;28;20108;-79
2021/09/25 06:09:59;;;;;;;7.85;5.97;;;18.50;1.00;;;;;;5051839;28;20441;-79
2021/09/25 06:12:25;;;;;;;7.55;5.88;;;18.60;1.00;;;;;;5051659;28;20036;-79
2021/09/25 06:14:53;;;;;;;5.68;5.18;;;18.60;1.00;;;;;;5051695;28;20076;-81
2021/09/25 06:17:20;;;;;;;6.57;5.97;;;18.60;1.00;;;;;;5053808;28;20029;-81
2021/09/25 06:19:46;;;;;;;6.93;5.70;;;18.60;1.00;;;;;;5051936;28;20095;-82
2021/09/25 06:22:11;;;;;;;6.05;5.43;;;18.50;1.00;;;;;;5051404;28;20025;-80
2021/09/25 06:24:37;;;;;;;7.07;5.78;;;18.50;1.00;;;;;;5050509;28;20393;-79
2021/09/25 06:27:03;;;;;;;6.20;5.60;;;18.50;1.00;;;;;;5050064;28;20037;-80
2021/09/25 06:29:28;;;;;;;6.90;5.72;;;18.60;1.00;;;;;;5052409;28;20040;-79
2021/09/25 06:31:54;;;;;;;7.32;5.80;;;18.70;1.00;;;;;;5051380;28;20111;-80
2021/09/25 06:34:22;;;;;;;7.22;5.70;;;18.90;1.00;;;;;;5050987;28;20397;-79
2021/09/25 06:36:48;;;;;;;7.53;6.07;;;18.90;1.00;;;;;;5049837;28;20080;-79
2021/09/25 06:39:15;;;;;;;6.68;5.93;;;19.00;1.00;;;;;;5051552;28;20072;-79
2021/09/25 06:41:41;;;;;;;7.07;6.45;;;19.20;1.00;;;;;;5051578;28;20508;-79
2021/09/25 06:44:06;;;;;;;6.90;5.57;;;19.20;1.00;;;;;;5052598;28;20041;-79
2021/09/25 06:46:33;;;;;;;8.73;6.55;;;19.30;1.00;;;;;;5050651;28;20017;-79
2021/09/25 06:48:58;;;;;;;9.10;6.78;;;19.20;1.00;;;;;;5051260;28;20040;-79
2021/09/25 06:51:24;;;;;;;10.20;6.10;;;19.10;1.00;;;;;;5051029;28;20397;-79
2021/09/25 06:53:50;;;;;;;6.72;5.72;;;19.10;1.00;;;;;;5050814;28;20045;-79
2021/09/25 06:56:15;;;;;;;6.35;5.72;;;19.00;1.00;;;;;;5053252;28;20366;-80
2021/09/25 06:58:41;;;;;;;7.07;6.03;;;19.00;1.00;;;;;;5050213;28;20123;-79
2021/09/25 07:01:07;;;;;;;11.23;5.88;;;19.10;1.00;;;;;;5050699;28;20074;-80
2021/09/25 07:03:33;;;;;;;11.10;6.35;;;19.40;1.00;;;;;;5050683;28;20069;-79
2021/09/25 07:05:58;;;;;;;7.22;6.13;;;19.40;1.00;;;;;;5043409;28;20450;-79
2021/09/25 07:08:24;;;;;;;8.57;6.72;;;19.60;1.00;;;;;;5041695;28;20057;-79
2021/09/25 07:10:50;;;;;;;9.05;6.30;;;19.70;1.00;;;;;;5050240;28;20033;-79
2021/09/25 07:13:17;;;;;;;7.60;6.28;;;19.90;1.00;;;;;;5047180;28;20025;-79
2021/09/25 07:15:42;;;;;;;7.05;6.35;;;20.00;1.00;;;;;;5043547;28;20037;-79
2021/09/25 07:18:09;;;;;;;9.07;5.97;;;20.10;1.00;;;;;;5050584;28;20527;-79
2021/09/25 07:20:35;;;;;;;10.05;6.47;;;20.40;1.00;;;;;;5051469;28;20043;-79
2021/09/25 07:23:01;;;;;;;6.93;5.90;;;20.60;1.00;;;;;;5051274;28;20021;-79
2021/09/25 07:25:28;;;;;;;9.70;5.93;;;20.90;1.00;;;;;;5050604;28;20029;-79
2021/09/25 07:27:54;;;;;;;7.95;6.22;;;21.00;1.00;;;;;;5049555;28;20025;-79
2021/09/25 07:30:20;;;;;;;8.05;5.95;;;21.10;1.00;;;;;;5050199;28;20009;-80
2021/09/25 07:32:47;;;;;;;7.22;5.72;;;21.10;1.00;;;;;;5050666;28;20075;-79
2021/09/25 07:35:14;;;;;;;6.55;5.82;;;21.40;1.00;;;;;;5051910;28;20389;-80
2021/09/25 07:37:41;;;;;;;6.45;5.30;;;21.80;1.00;;;;;;5050033;28;20132;-80
2021/09/25 07:40:08;;;;;;;7.00;5.57;;;22.00;1.00;;;;;;5050255;28;20029;-80
2021/09/25 07:42:33;;;;;;;6.25;5.65;;;22.10;1.00;;;;;;5048954;28;20032;-79
2021/09/25 07:44:59;;;;;;;6.50;5.78;;;22.00;1.00;;;;;;5050085;28;20036;-79
2021/09/25 07:47:25;;;;;;;5.30;4.80;;;22.10;1.00;;;;;;5052301;28;20104;-79
2021/09/25 07:49:50;;;;;;;6.88;5.68;;;22.00;1.00;;;;;;5049816;28;20437;-80
2021/09/25 07:52:17;;;;;;;9.80;5.72;;;22.00;1.00;;;;;;5049544;28;20032;-80
2021/09/25 07:54:43;;;;;;;7.72;5.80;;;21.90;1.00;;;;;;5048116;28;20009;-80
2021/09/25 07:57:09;;;;;;;6.90;5.40;;;22.00;1.00;;;;;;5049888;28;20060;-80
2021/09/25 07:59:34;;;;;;;6.70;5.82;;;21.90;1.00;;;;;;5051512;28;20065;-80
2021/09/25 08:02:00;;;;;;;7.18;5.03;;;21.90;1.00;;;;;;5051044;28;20036;-80
2021/09/25 08:04:26;;;;;;;6.78;6.10;;;21.90;1.00;;;;;;5049639;28;20103;-80
2021/09/25 08:06:51;;;;;;;6.80;5.45;;;21.80;1.00;;;;;;5050093;28;20021;-80
2021/09/25 08:09:20;;;;;;;13.10;6.15;;;21.90;1.00;;;;;;5049748;28;20052;-80
2021/09/25 08:11:46;;;;;;;7.10;6.38;;;21.90;1.00;;;;;;5049864;28;20029;-80
2021/09/25 08:14:12;;;;;;;8.07;6.28;;;22.00;1.00;;;;;;5051426;28;20110;-80
2021/09/25 08:16:37;;;;;;;8.15;5.93;;;22.30;1.00;;;;;;5049466;28;20032;-80
2021/09/25 08:19:04;;;;;;;6.68;5.95;;;22.20;1.00;;;;;;5043524;28;20071;-80
2021/09/25 08:21:30;;;;;;;6.03;5.43;;;22.40;1.00;;;;;;5049548;28;20108;-80
2021/09/25 08:23:56;;;;;;;5.88;5.30;;;22.50;1.00;;;;;;5033453;28;20558;-80
2021/09/25 08:26:21;;;;;;;6.10;5.50;;;22.40;1.00;;;;;;5051981;28;20032;-80
2021/09/25 08:28:47;;;;;;;7.72;5.95;;;22.30;1.00;;;;;;5049193;28;20436;-80
2021/09/25 08:31:12;;;;;;;8.13;5.50;;;22.40;1.00;;;;;;5049284;28;20400;-80
2021/09/25 08:33:38;;;;;;;6.30;5.60;;;22.40;1.00;;;;;;5047796;28;20064;-80
2021/09/25 08:36:04;;;;;;;5.95;5.40;;;22.50;1.00;;;;;;5031898;28;20473;-80
2021/09/25 08:38:29;;;;;;;7.50;5.68;;;22.40;1.00;;;;;;5050591;28;20037;-80
2021/09/25 08:40:57;;;;;;;6.10;5.55;;;22.70;1.00;;;;;;5048246;28;20025;-79
2021/09/25 08:43:25;;;;;;;6.18;5.57;;;23.10;1.00;;;;;;5049936;28;20029;-80
2021/09/25 08:45:58;;;;;;;8.40;5.32;;;23.50;1.00;;;;;;5049071;28;20036;-80
2021/09/25 08:48:25;;;;;;;5.82;5.30;;;24.80;1.00;;;;;;5049547;28;20025;-80
2021/09/25 08:50:50;;;;;;;6.60;5.45;;;28.80;1.00;;;;;;5048933;28;20083;-80
2021/09/25 08:53:16;;;;;;;6.68;5.38;;;32.40;1.00;;;;;;5051736;28;20021;-80
2021/09/25 08:55:42;;;;;;;6.72;5.78;;;32.60;1.00;;;;;;5053435;28;20033;-80
2021/09/25 08:58:10;;;;;;;8.80;5.45;;;33.50;1.00;;;;;;5052951;28;20046;-80
2021/09/25 09:00:38;;;;;;;7.05;5.40;;;33.40;1.00;;;;;;5053249;28;20025;-80
2021/09/25 09:03:15;;;;;;;7.18;5.60;;;32.10;1.00;;;;;;5053915;28;20025;-80
2021/09/25 09:05:41;;;;;;;6.90;5.50;;;34.20;1.00;;;;;;5053049;28;20029;-80
2021/09/25 09:08:07;;;;;;;5.90;5.30;;;34.00;1.00;;;;;;5054375;28;20123;-80
2021/09/25 09:10:33;;;;;;;8.30;5.07;;;34.50;1.00;;;;;;5052768;28;20052;-80
2021/09/25 09:13:00;;;;;;;7.13;5.25;;;37.20;1.00;;;;;;5051497;28;20042;-81
2021/09/25 09:15:35;;;;;;;6.22;5.38;;;36.20;1.00;;;;;;5052753;28;20041;-80
2021/09/25 09:18:02;;;;;;;7.93;5.53;;;32.70;1.00;;;;;;5037897;28;20048;-80
2021/09/25 09:20:29;;;;;;;5.75;5.25;;;29.90;1.00;;;;;;5055371;28;20029;-80
2021/09/25 09:23:17;;;;;;;6.18;5.47;;;29.80;1.00;;;;;;5052752;28;20033;-80
2021/09/25 09:25:43;;;;;;;6.15;5.50;;;28.00;1.00;;;;;;5052734;28;20039;-80
2021/09/25 09:28:20;;;;;;;6.00;5.43;;;26.80;1.00;;;;;;5052424;28;20033;-80
2021/09/25 09:30:50;;;;;;;6.28;5.60;;;25.40;1.00;;;;;;5051463;28;20029;-80
2021/09/25 09:33:29;;;;;;;7.85;6.10;;;25.60;1.00;;;;;;5052628;28;20048;-80
2021/09/25 09:36:17;;;;;;;7.28;6.13;;;26.50;1.00;;;;;;5050800;28;20041;-80
2021/09/25 09:38:54;;;;;;;8.05;5.78;;;26.10;1.00;;;;;;5050839;28;20397;-80
2021/09/25 09:41:30;;;;;;;5.50;5.00;;;26.50;1.00;;;;;;5053990;28;20033;-80
2021/09/25 09:44:01;;;;;;;8.02;5.45;;;26.00;1.00;;;;;;5053026;28;20079;-80
2021/09/25 09:46:51;;;;;;;7.63;5.72;;;25.80;1.00;;;;;;5052278;28;20150;-80
2021/09/25 09:49:22;;;;;;;5.75;5.20;;;26.00;1.00;;;;;;5051492;28;20131;-80
2021/09/25 09:51:50;;;;;;;7.80;5.60;;;26.30;1.00;;;;;;5050319;28;20021;-80
2021/09/25 09:54:22;;;;;;;6.38;5.22;;;26.50;1.00;;;;;;5052105;28;20021;-80
2021/09/25 09:56:49;;;;;;;6.88;5.53;;;26.50;1.00;;;;;;5052464;28;20026;-80
2021/09/25 09:59:16;;;;;;;7.47;5.60;;;26.70;1.00;;;;;;5055221;28;20557;-80
2021/09/25 10:01:42;;;;;;;6.65;5.20;;;28.10;1.00;;;;;;5051669;28;20029;-80
2021/09/25 10:04:09;;;;;;;6.68;5.07;;;27.60;1.00;;;;;;5051617;28;20123;-80
2021/09/25 10:06:36;;;;;;;5.85;4.63;;;28.20;1.00;;;;;;5050749;28;20013;-80
2021/09/25 10:09:16;;;;;;;6.78;4.70;;;31.90;1.00;;;;;;5051878;28;20108;-80
2021/09/25 10:11:44;;;;;;;9.32;5.30;;;31.40;1.00;;;;;;5052202;28;20032;-80
2021/09/25 10:14:17;;;;;;;5.55;4.85;;;35.30;1.00;;;;;;5034063;28;20416;-80
2021/09/25 10:16:43;;;;;;;4.95;4.38;;;38.20;1.00;;;;;;5051964;28;20029;-81
2021/09/25 10:19:11;;;;;;;6.68;4.15;;;37.50;1.00;;;;;;5051338;28;20178;-80
2021/09/25 10:21:37;;;;;;;5.35;4.28;;;37.70;1.00;;;;;;5051019;28;20025;-80
2021/09/25 10:24:08;;;;;;;4.70;4.20;;;37.00;1.00;;;;;;5051816;28;20021;-80
2021/09/25 10:26:35;;;;;;;5.70;4.50;;;39.20;1.00;;;;;;5052739;28;20537;-80
2021/09/25 10:29:04;;;;;;;5.80;4.15;;;38.90;1.00;;;;;;5052944;28;20405;-80
2021/09/25 10:31:30;;;;;;;5.82;4.25;;;40.00;1.00;;;;;;5049462;28;20029;-80
2021/09/25 10:34:11;;;;;;;4.25;3.80;;;40.60;1.00;;;;;;5051594;28;20028;-81
2021/09/25 10:36:43;;;;;;;4.15;3.70;;;40.20;1.00;;;;;;5051578;28;20048;-80
2021/09/25 10:39:36;;;;;;;3.88;3.45;;;38.60;1.00;;;;;;5051270;28;20033;-80
2021/09/25 10:42:15;;;;;;;5.95;3.90;;;40.10;1.00;;;;;;5033363;28;20116;-81
2021/09/25 10:44:50;;;;;;;3.83;3.35;;;42.00;1.00;;;;;;5051312;28;20451;-80
2021/09/25 10:47:24;;;;;;;3.75;3.45;;;40.60;1.00;;;;;;5052566;28;20493;-81
2021/09/25 10:49:57;;;;;;;3.88;3.33;;;40.60;1.00;;;;;;5050460;28;20112;-81
2021/09/25 10:52:51;;;;;;;5.53;3.40;;;41.50;1.00;;;;;;5050646;28;20033;-81
2021/09/25 10:55:29;;;;;;;4.13;3.70;;;40.40;1.00;;;;;;5051007;28;20109;-82
2021/09/25 10:58:12;;;;;;;4.63;3.30;;;38.50;1.00;;;;;;5051513;28;20083;-81
2021/09/25 11:00:55;;;;;;;4.30;3.60;;;35.70;1.00;;;;;;5050717;28;20013;-81
2021/09/25 11:03:39;;;;;;;5.90;3.70;;;32.60;1.00;;;;;;5050327;28;20029;-80
2021/09/25 11:06:09;;;;;;;3.95;3.60;;;31.30;1.00;;;;;;5036073;28;20087;-80
2021/09/25 11:08:36;;;;;;;4.60;3.42;;;31.00;1.00;;;;;;5052212;28;20040;-81
2021/09/25 11:11:14;;;;;;;5.25;3.72;;;30.80;1.00;;;;;;5050606;28;20155;-81
2021/09/25 11:14:02;;;;;;;5.78;3.30;;;31.80;1.00;;;;;;5050274;28;20049;-81
2021/09/25 11:16:50;;;;;;;6.35;3.53;;;31.60;1.00;;;;;;5049851;28;20087;-80
2021/09/25 11:19:21;;;;;;;3.25;2.95;;;33.60;1.00;;;;;;5049696;28;20497;-80
2021/09/25 11:21:58;;;;;;;6.68;3.72;;;31.80;1.00;;;;;;5050582;28;20025;-80
2021/09/25 11:24:25;;;;;;;5.20;3.40;;;30.40;1.00;;;;;;5050174;28;20175;-80
2021/09/25 11:26:51;;;;;;;5.90;3.50;;;29.60;1.00;;;;;;5050489;28;20028;-80
2021/09/25 11:29:17;;;;;;;3.42;3.13;;;31.20;1.00;;;;;;5034599;28;20033;-81
2021/09/25 11:31:48;;;;;;;3.78;3.25;;;36.70;1.00;;;;;;5050615;28;20477;-81
2021/09/25 11:34:21;;;;;;;5.57;2.75;;;34.30;1.00;;;;;;5049651;28;20025;-80
2021/09/25 11:36:51;;;;;;;5.28;3.00;;;32.40;1.00;;;;;;5050101;28;20017;-81
2021/09/25 11:39:23;;;;;;;4.72;3.15;;;31.10;1.00;;;;;;5050348;28;20051;-80
2021/09/25 11:42:08;;;;;;;4.97;3.38;;;29.80;1.00;;;;;;5049665;28;20028;-81
2021/09/25 11:44:51;;;;;;;4.75;3.08;;;29.40;1.00;;;;;;5048595;28;20059;-81
2021/09/25 11:47:24;;;;;;;5.55;3.50;;;28.80;1.00;;;;;;5051561;28;20066;-81
2021/09/25 11:49:50;;;;;;;4.68;3.20;;;28.70;1.00;;;;;;5048545;28;20159;-80
2021/09/25 11:52:16;;;;;;;5.13;3.30;;;29.60;1.00;;;;;;5050829;28;20111;-81
2021/09/25 11:54:43;;;;;;;5.15;3.00;;;31.00;1.00;;;;;;5050238;28;20112;-81
2021/09/25 11:57:19;;;;;;;5.65;3.28;;;34.70;1.00;;;;;;5050242;28;20021;-81
2021/09/25 11:59:45;;;;;;;5.03;3.33;;;37.20;1.00;;;;;;5049395;28;20029;-81
2021/09/25 12:02:10;;;;;;;8.48;3.50;;;38.00;1.00;;;;;;5051786;28;20067;-81
2021/09/25 12:04:38;;;;;;;8.77;3.47;;;35.40;1.00;;;;;;5049734;28;20029;-81
2021/09/25 12:07:03;;;;;;;5.70;3.15;;;33.40;1.00;;;;;;5031947;28;20040;-81
2021/09/25 12:09:43;;;;;;;7.93;3.10;;;35.50;1.00;;;;;;5049919;28;20024;-81
2021/09/25 12:12:09;;;;;;;6.28;3.28;;;33.20;1.00;;;;;;5035499;28;20029;-81
2021/09/25 12:14:45;;;;;;;5.15;3.13;;;32.20;1.00;;;;;;5050724;28;20052;-81
2021/09/25 12:17:15;;;;;;;3.78;3.10;;;32.70;1.00;;;;;;5049612;28;20039;-81
2021/09/25 12:19:43;;;;;;;4.72;3.03;;;35.10;1.00;;;;;;5049495;28;20040;-81
2021/09/25 12:22:21;;;;;;;4.68;3.08;;;36.30;1.00;;;;;;5050238;28;20408;-81
2021/09/25 12:24:47;;;;;;;5.25;3.08;;;37.10;1.00;;;;;;5049260;28;20477;-81
2021/09/25 12:27:26;;;;;;;4.43;3.33;;;37.10;1.00;;;;;;5047783;28;20079;-81
2021/09/25 12:29:51;;;;;;;3.50;2.83;;;37.00;1.00;;;;;;5049386;28;20024;-81
2021/09/25 12:32:20;;;;;;;6.53;3.22;;;38.00;1.00;;;;;;5051082;28;20036;-81
2021/09/25 12:34:50;;;;;;;6.25;3.30;;;37.90;1.00;;;;;;5049917;28;20029;-82
2021/09/25 12:37:16;;;;;;;6.65;3.05;;;37.30;1.00;;;;;;5049484;28;20076;-81
2021/09/25 12:39:47;;;;;;;4.70;3.00;;;37.10;1.00;;;;;;5049223;28;20033;-81
2021/09/25 12:42:24;;;;;;;5.28;3.00;;;37.80;1.00;;;;;;5049343;28;20048;-81
2021/09/25 12:44:53;;;;;;;5.25;3.30;;;36.40;1.00;;;;;;5049097;28;20485;-80
2021/09/25 12:47:30;;;;;;;5.13;2.97;;;38.30;1.00;;;;;;5043642;28;20044;-82
2021/09/25 12:50:24;;;;;;;4.70;2.90;;;38.20;1.00;;;;;;5048211;28;20047;-82
2021/09/25 12:52:57;;;;;;;4.07;3.22;;;39.10;1.00;;;;;;5049163;28;20491;-82
2021/09/25 12:55:23;;;;;;;4.90;3.03;;;39.40;1.00;;;;;;5048770;28;20036;-82
2021/09/25 12:58:00;;;;;;;5.15;3.30;;;39.10;1.00;;;;;;5049354;28;20500;-82
2021/09/25 13:00:28;;;;;;;4.38;2.97;;;38.60;1.00;;;;;;5049071;28;20090;-82
2021/09/25 13:02:59;;;;;;;6.57;3.25;;;38.80;1.00;;;;;;5048834;28;20485;-82